• Join FlightAware (Why Join?)
  • Login
  • US Flag 
01:45PM EST


 

Airport Tracker/Info


-or-


 

Live Flight TrackerFlight Track Log ✈ SWA367 ✈ 04-Jul-2014 ✈ KELP - KDAL

Flight Track Log - Related Links

Times and Time Zones

All times are in EDT time to prevent confusion due to time zone crossing. See the SWA367 flight status page for this flight to view local times or setup timezone preferences in your user account.

Time Position Orientation Groundspeed Altitude Reporting Facility
EDT Latitude Longitude Course Direction KTS MPH feet Rate Location/Type
06:05PM 31.8008 -106.3481 66° East 172 198 4,700  Level Albuquerque Center
06:06PM 31.8183 -106.3017 66° East 203 234 6,000 1,860 Climbing Albuquerque Center
06:06PM 31.8256 -106.2844 64° Northeast 237 273 6,600 1,620 Climbing Albuquerque Center
06:07PM 31.8231 -106.2219 93° East 252 290 7,700 2,160 Climbing Albuquerque Center
06:08PM 31.8244 -106.1306 89° East 274 315 10,600 2,100 Climbing Albuquerque Center
06:09PM 31.8253 -106.0389 89° East 279 321 12,000 1,560 Climbing Albuquerque Center
06:10PM 31.8183 -105.9278 94° East 336 387 13,800 1,920 Climbing Albuquerque Center
06:11PM 31.8283 -105.8142 84° East 348 400 16,000 1,860 Climbing Albuquerque Center
06:12PM 31.8381 -105.6958 84° East 362 417 17,600 1,560 Climbing Albuquerque Center
06:13PM 31.8394 -105.5675 89° East 385 443 19,200 1,560 Climbing Albuquerque Center
06:14PM 31.8406 -105.4375 89° East 395 455 20,800 1,620 Climbing Albuquerque Center
06:15PM 31.8467 -105.2736 87° East 414 476 22,600 1,620 Climbing Albuquerque Center
06:16PM 31.8486 -105.1375 89° East 415 478 24,100 1,320 Climbing Albuquerque Center
06:17PM 31.8522 -104.9914 88° East 433 498 25,300 1,320 Climbing Albuquerque Center
06:18PM 31.8553 -104.8475 89° East 441 507 26,800 1,500 Climbing Albuquerque Center
06:19PM 31.8592 -104.6997 88° East 444 511 28,400 1,380 Climbing Albuquerque Center
06:20PM 31.8608 -104.5531 89° East 444 511 29,700 1,440 Climbing Albuquerque Center
06:21PM 31.8644 -104.4094 88° East 443 510 31,400 1,380 Climbing Albuquerque Center
06:22PM 31.8650 -104.2683 90° East 437 503 32,600 1,140 Climbing Albuquerque Center
06:23PM 31.8672 -104.1242 89° East 437 503 33,800 1,140 Climbing Albuquerque Center
06:24PM 31.8683 -103.9850 89° East 436 502 35,000 540 Climbing Albuquerque Center
06:25PM 31.8686 -103.8431 90° East 435 501 35,000  Level Albuquerque Center
06:26PM 31.8731 -103.6997 88° East 440 506 35,000  Level Albuquerque Center
06:27PM 31.8744 -103.5267 89° East 440 506 35,000  Level Albuquerque Center
06:28PM 31.8742 -103.3811 90° East 441 507 35,000  Level Albuquerque Center
06:29PM 31.8739 -103.2731 90° East 436 502 35,000  Level Fort Worth Center
06:30PM 31.8861 -103.1336 84° East 432 497 35,000  Level Fort Worth Center
06:31PM 31.9067 -102.9625 82° East 438 504 35,000  Level Fort Worth Center
06:32PM 31.9250 -102.8175 81° East 441 507 35,000  Level Fort Worth Center
06:33PM 31.9419 -102.6739 82° East 443 510 35,000  Level Fort Worth Center
06:35PM 31.9578 -102.5292 83° East 443 510 35,000  Level Fort Worth Center
06:36PM 31.9744 -102.3842 82° East 444 511 35,000  Level Fort Worth Center
06:37PM 31.9906 -102.2392 82° East 444 511 35,000  Level Fort Worth Center
06:38PM 32.0064 -102.0953 83° East 444 511 35,000  Level Fort Worth Center
06:39PM 32.0225 -101.9506 82° East 444 511 35,000  Level Fort Worth Center
06:40PM 32.0378 -101.8050 83° East 445 512 35,000  Level Fort Worth Center
06:41PM 32.0528 -101.6581 83° East 449 517 35,000  Level Fort Worth Center
06:42PM 32.0681 -101.5119 83° East 449 517 35,000 -60 Level Fort Worth Center
06:43PM 32.0833 -101.3661 83° East 449 517 34,900  Descending Fort Worth Center
06:44PM 32.0978 -101.2206 83° East 449 517 35,000  Climbing Fort Worth Center
06:45PM 32.1094 -101.0742 85° East 448 516 35,000  Level Fort Worth Center
06:46PM 32.1231 -100.9047 85° East 449 517 35,000  Level Fort Worth Center
06:47PM 32.1339 -100.7558 85° East 452 520 35,000  Level Fort Worth Center
06:48PM 32.1469 -100.6106 84° East 451 519 35,000  Level Fort Worth Center
06:49PM 32.1572 -100.4681 85° East 443 510 35,000  Level Fort Worth Center
06:50PM 32.1681 -100.3275 85° East 437 503 35,000  Level Fort Worth Center
06:51PM 32.1786 -100.1858 85° East 435 501 35,000  Level Fort Worth Center
06:52PM 32.1894 -100.0436 85° East 437 503 35,000  Level Fort Worth Center
06:53PM 32.2017 -99.8989 84° East 443 510 35,000  Level Fort Worth Center
06:54PM 32.2200 -99.7547 81° East 445 512 35,000  Level Fort Worth Center
06:55PM 32.2400 -99.5789 82° East 450 518 35,000  Level Fort Worth Center
06:56PM 32.2569 -99.4317 82° East 453 521 35,000  Level Fort Worth Center
06:57PM 32.2750 -99.2828 82° East 458 527 35,000  Level Fort Worth Center
06:58PM 32.2922 -99.1369 82° East 455 524 35,000  Level Fort Worth Center
06:59PM 32.3089 -98.9933 82° East 448 516 35,000  Level Fort Worth Center
07:00PM 32.3236 -98.8536 83° East 434 499 35,000 -960 Level Fort Worth Center
07:01PM 32.3417 -98.7033 82° East 438 504 33,100 -2,760 Descending Fort Worth Center
07:02PM 32.3569 -98.5525 83° East 460 529 29,400 -3,540 Descending Fort Worth Center
07:03PM 32.3744 -98.4044 82° East 459 528 26,000 -3,540 Descending Fort Worth Center
07:04PM 32.3936 -98.2400 82° East 452 520 22,300 -2,940 Descending Fort Worth Center
07:05PM 32.4081 -98.1025 83° East 422 486 20,100 -1,920 Descending Fort Worth Center
07:06PM 32.4208 -97.9783 83° East 383 441 18,500 -1,380 Descending Fort Worth Center
07:07PM 32.4333 -97.8567 83° East 374 430 17,300 -1,560 Descending Fort Worth Center
07:08PM 32.4469 -97.7317 83° East 360 414 15,400 -2,100 Descending Fort Worth Center
07:09PM 32.4592 -97.6133 83° East 363 418 13,100 -2,100 Descending Fort Worth Center
07:10PM 32.4789 -97.5019 78° East 352 405 11,200 -960 Descending Fort Worth Center
07:11PM 32.5431 -97.4197 47° Northeast 341 392 11,200  Level Fort Worth Center
07:12PM 32.6194 -97.3297 45° Northeast 358 412 11,200  Level Fort Worth Center
07:13PM 32.6858 -97.2483 46° Northeast 344 396 11,200 -420 Level Fort Worth Center
07:14PM 32.7378 -97.1839 46° Northeast 272 313 10,400 -1,200 Descending Fort Worth Center
07:15PM 32.8056 -97.1736 North 256 295 8,800 -1,620 Descending Fort Worth Center
07:16PM 32.8756 -97.1786 357° North 252 290 7,200 -1,980 Descending Fort Worth Center
07:17PM 32.9047 -97.1064 64° Northeast 245 282 4,800 -1,500 Descending Fort Worth Center
07:18PM 32.9125 -97.0347 83° East 221 254 4,200 -840 Descending Fort Worth Center
07:19PM 32.9150 -96.9700 87° East 198 228 3,200 -1,140 Descending Fort Worth Center
07:20PM 32.9003 -96.9211 110° East 161 185 1,900 -1,140 Descending Fort Worth Center
07:21PM 32.8706 -96.8869 136° Southeast 143 165 1,000 -600 Descending Fort Worth Center
07:22PM 32.8464 -96.8586 135° Southeast 141 162 800 -240 Descending Fort Worth Center
07:24PM 32.8471 -96.8518 105° East  Level Estimated
07:31PM 32.8471 -96.8518 105° East  Level Estimated